Date,TemperatureHighF,TemperatureAvgF,TemperatureLowF,DewpointHighF,DewpointAvgF,DewpointLowF,HumidityHigh,HumidityAvg,HumidityLow,PressureMaxIn,PressureMinIn,WindSpeedMaxMPH,WindSpeedAvgMPH,GustSpeedMaxMPH,PrecipitationSumIn
2013-1-1,33,31,27,31,27,22,92,85,81,30.08,29.98,1,0,0,0.00
2013-1-3,31,29,27,25,24,19,85,80,69,30.16,30.08,3,2,0,0.00
2013-1-4,31,28,26,25,22,20,85,75,66,30.22,30.09,3,2,0,0.00
2013-1-5,36,31,25,29,25,20,83,78,71,30.32,30.10,2,0,0,0.00
2013-1-6,38,35,33,33,31,29,90,83,77,30.21,29.93,3,1,0,0.00
2013-1-7,38,33,30,30,28,25,90,82,67,30.42,30.21,2,1,0,0.00
2013-1-8,45,36,27,31,28,23,85,73,53,30.29,30.20,1,0,0,0.00
2013-1-9,49,41,36,39,34,29,84,76,63,30.46,30.12,4,1,0,0.00
2013-1-10,43,36,27,34,30,25,93,79,65,30.58,30.19,2,0,0,0.00
2013-1-11,58,50,42,54,44,30,95,82,62,30.19,29.81,3,1,0,0.00
2013-1-12,62,55,48,56,52,46,96,90,80,30.00,29.85,2,0,0,0.00
2013-1-13,65,51,38,60,49,37,100,92,75,30.01,29.70,4,1,0,0.00
2013-1-14,38,31,29,37,26,22,96,83,76,30.42,30.01,3,1,0,0.00
2013-1-15,32,30,28,25,24,22,82,78,71,30.40,30.11,1,0,0,0.00
2013-1-16,36,33,30,28,25,24,80,74,65,30.11,29.86,2,1,0,0.00
2013-1-17,36,34,27,31,28,19,83,77,69,30.25,29.97,4,1,0,0.00
2013-1-18,38,29,23,24,19,12,78,65,57,30.46,30.07,5,2,0,0.00
2013-1-19,52,45,36,35,30,24,64,56,51,30.07,29.68,5,2,0,0.00
2013-1-20,49,31,23,36,21,13,72,66,58,30.14,29.65,7,4,0,0.00
2013-1-21,23,20,12,15,11,4,86,70,57,30.12,29.92,4,2,0,0.00
2013-1-22,12,10,8,8,5,3,87,80,72,30.26,30.06,3,2,0,0.00
2013-1-23,17,13,9,13,7,3,86,78,69,30.27,30.06,2,1,0,0.00
2013-1-24,21,18,14,15,10,7,88,73,57,30.55,30.06,4,1,0,0.00
2013-1-25,20,17,15,16,12,8,88,80,71,30.50,30.02,1,0,0,0.00
2013-1-26,26,24,19,22,19,16,89,84,76,30.43,30.05,3,1,0,0.00
2013-1-27,31,25,14,27,19,11,90,77,65,30.50,30.23,2,0,0,0.00
2013-1-28,49,42,30,48,40,26,100,93,82,30.24,29.91,3,1,0,0.00
2013-1-29,63,39,40,58,10,-100,97,67,80,30.04,29.61,4,1,0,0.00
2013-1-30,65,58,39,58,53,35,96,84,74,29.61,29.14,6,3,0,0.00
2013-1-31,39,26,21,35,19,11,88,75,64,29.85,29.25,6,4,0,0.00
2013-2-1,21,17,13,17,12,8,92,80,68,30.28,29.83,4,2,0,0.00
2013-2-2,24,19,15,22,15,8,91,84,74,30.27,29.95,1,0,0,0.00
2013-2-3,23,20,17,21,17,14,91,85,72,30.00,29.86,3,1,0,0.00
2013-2-4,27,23,19,23,19,13,90,85,74,30.03,29.85,3,0,0,0.00
2013-2-5,30,26,23,25,22,20,91,84,72,29.92,29.83,1,0,0,0.00
2013-2-6,30,26,21,27,19,15,90,75,61,30.31,29.92,3,1,0,0.00
2013-2-7,45,34,22,32,25,16,79,70,60,30.29,29.84,3,1,0,0.00
2013-2-8,42,33,27,38,29,23,93,87,77,30.23,29.71,6,3,0,0.00
2013-2-9,30,26,23,24,22,19,88,83,76,30.42,30.23,4,1,0,0.00
2013-2-10,49,36,21,35,25,18,89,65,46,30.31,29.80,3,1,0,0.00
2013-2-11,52,43,35,46,36,27,90,76,63,29.89,29.64,7,4,0,0.00
2013-2-12,36,33,27,29,26,24,89,77,71,30.07,29.90,5,1,0,0.00
2013-2-13,31,29,26,28,25,23,89,85,80,29.91,29.75,1,0,0,0.00
2013-2-14,41,34,27,36,30,24,89,85,75,29.87,29.75,4,1,0,0.00
2013-2-15,38,32,28,31,26,20,88,77,69,30.09,29.87,4,1,0,0.00
2013-2-16,28,25,22,22,20,17,89,78,66,30.08,29.95,2,0,0,0.00
2013-2-17,23,20,17,18,14,11,87,77,66,30.22,29.96,3,2,0,0.00
2013-2-18,47,30,14,35,20,9,81,68,56,30.24,29.71,3,1,0,0.00
2013-2-19,50,33,19,40,28,12,92,82,59,29.95,29.55,6,3,0,0.00
2013-2-20,23,21,18,19,14,12,88,76,69,30.20,29.95,5,3,0,0.00
2013-2-21,23,21,19,18,16,13,86,78,72,30.36,30.19,3,1,0,0.00
2013-2-22,39,31,20,37,27,15,92,84,75,30.28,29.90,3,1,0,0.00
2013-2-23,38,34,31,33,29,25,85,80,69,29.95,29.88,2,1,0,0.00
2013-2-24,35,32,28,29,25,22,81,77,71,30.13,29.88,3,1,0,0.00
2013-2-25,41,33,25,31,27,22,92,77,62,30.21,30.06,2,1,0,0.00
2013-2-26,40,36,28,37,30,23,92,81,66,30.09,29.49,5,2,0,0.00
2013-2-27,44,39,34,40,37,32,95,91,83,29.62,29.48,3,1,0,0.00
2013-2-28,35,34,32,33,31,29,94,91,86,29.88,29.57,4,2,0,0.00
2013-3-1,32,29,27,29,26,23,92,88,82,30.02,29.87,3,2,0,0.00
2013-3-2,28,27,24,25,23,21,89,87,84,30.01,29.97,2,1,0,0.00
2013-3-3,27,26,24,24,21,19,92,83,75,30.03,29.96,3,1,0,0.00
2013-3-4,32,27,23,24,21,18,86,79,69,30.12,30.02,2,0,0,0.00
2013-3-5,42,30,20,31,24,17,90,79,49,30.10,29.68,4,1,0,0.00
2013-3-6,45,37,33,35,30,27,84,77,65,30.13,29.68,4,2,0,0.00
2013-4-4,57,46,36,28,23,20,60,42,26,30.24,29.95,2,1,0,0.00
2013-4-5,44,40,34,35,28,20,82,63,46,30.21,29.91,4,1,0,0.00
2013-4-6,57,42,28,26,23,19,75,49,30,30.27,29.89,3,1,0,0.00
2013-4-7,70,57,47,50,40,26,74,55,32,30.02,29.75,6,2,0,0.00
2013-4-8,72,57,38,59,47,34,85,70,55,30.05,29.79,5,2,0,0.00
2013-4-9,79,61,46,62,51,43,90,72,53,30.11,29.83,3,1,0,0.00
2013-4-10,63,51,43,60,47,41,96,87,67,29.96,29.78,3,0,0,0.00
2013-4-11,53,47,41,50,45,40,96,94,88,29.92,29.58,4,1,0,0.00
2013-4-12,54,45,42,53,42,35,98,89,74,29.83,29.43,4,1,0,0.00
2013-4-13,45,42,40,39,36,32,89,79,70,30.01,29.83,4,2,0,0.00
2013-4-14,56,45,35,42,36,31,86,72,58,30.12,29.95,3,0,0,0.00
2013-4-15,73,61,50,55,49,40,74,64,54,30.02,29.92,3,1,0,0.00
2013-4-16,68,57,50,62,52,48,94,85,74,30.19,29.92,4,1,0,0.00
2013-4-17,61,54,47,49,45,39,96,72,56,30.29,30.04,3,1,0,0.00
2013-4-18,86,71,54,68,60,45,87,72,44,30.05,29.66,5,2,0,0.00
2013-4-19,72,55,42,62,46,32,92,74,61,29.83,29.37,5,3,0,0.00
2013-4-20,42,39,35,34,30,27,84,71,60,30.41,29.83,4,2,0,0.00
2013-4-21,45,40,33,34,30,27,81,66,56,30.61,30.41,4,1,0,0.00
2013-4-22,66,52,37,44,37,29,73,56,43,30.47,30.20,2,1,0,0.00
2013-4-23,74,61,46,49,42,33,66,50,40,30.21,29.87,3,2,0,0.00
2013-4-24,65,48,38,56,44,36,94,88,55,30.15,29.72,4,1,0,0.00
2013-4-25,53,43,34,43,36,31,93,78,55,30.34,30.15,3,1,0,0.00
2013-4-26,55,46,34,39,36,32,93,69,48,30.47,30.34,2,0,0,0.00
2013-4-27,68,55,43,47,41,35,80,62,40,30.38,30.11,3,1,0,0.00
2013-4-28,59,56,51,56,49,-100,95,81,63,30.11,29.86,3,1,0,0.00
2013-4-29,65,60,57,59,56,53,97,86,70,29.97,29.86,2,0,0,0.00
2013-4-30,76,65,54,60,57,53,95,76,54,30.11,29.98,3,1,0,0.00
2013-5-1,80,70,58,62,57,52,83,65,48,30.25,30.11,3,1,0,0.00
2013-5-2,79,70,59,56,48,42,59,47,37,30.30,30.15,3,1,0,0.00
2013-5-3,78,69,59,51,46,42,60,45,32,30.18,30.07,4,2,0,0.00
2013-5-4,73,65,56,50,46,41,66,50,35,30.16,30.05,4,2,0,0.00
2013-5-5,75,66,56,47,43,36,67,46,26,30.10,29.98,5,2,0,0.00
2013-5-6,75,65,54,55,48,35,66,53,33,30.05,29.95,4,1,0,0.00
2013-5-7,74,67,60,60,56,54,80,69,54,30.03,29.95,3,1,0,0.00
2013-5-8,71,64,56,59,56,52,89,75,63,29.98,29.93,2,0,0,0.00
2013-5-9,76,67,56,58,52,45,94,65,34,29.98,29.92,1,0,0,0.00
2013-5-10,74,64,51,66,56,-100,96,82,49,29.94,29.75,2,0,0,0.00
2013-5-11,56,49,45,51,47,44,96,91,79,29.88,29.79,4,0,0,0.00
2013-5-12,51,45,40,42,35,-100,87,71,54,30.07,29.88,4,2,0,0.00
2013-5-13,49,44,39,33,31,29,71,61,49,30.18,30.05,2,1,0,0.00
2013-5-14,67,53,40,48,39,30,72,60,47,30.15,29.79,3,1,0,0.00
2013-5-15,82,69,59,64,55,45,81,62,43,29.80,29.67,3,1,0,0.00
2013-5-16,79,62,58,56,31,-100,80,57,36,29.97,29.75,2,0,0,0.00
2013-5-17,66,60,56,49,46,45,68,61,53,30.04,29.97,0,0,0,0.00
2013-5-18,80,75,69,60,58,55,62,55,50,30.03,30.01,3,1,0,0.00
2013-5-19,83,73,65,69,64,55,88,74,61,30.05,29.92,2,0,0,0.00
2013-5-20,86,77,67,74,69,64,91,78,65,29.97,29.84,2,0,0,0.00
2013-5-21,87,83,77,71,68,65,82,61,53,29.86,29.75,1,1,0,0.00
2013-5-22,85,77,65,68,66,63,93,70,56,29.81,29.67,3,0,0,0.00
2013-5-23,71,60,43,65,57,41,96,90,75,30.04,29.72,2,0,0,0.00
2013-5-24,46,44,43,42,38,35,93,79,70,30.32,30.04,2,1,0,0.00
2013-5-25,59,49,39,44,40,35,90,70,52,30.37,30.27,2,1,0,0.00
2013-5-26,62,53,41,45,41,37,91,65,46,30.33,30.23,2,0,0,0.00
2013-5-27,59,54,44,52,46,40,89,76,57,30.26,30.04,2,0,0,0.00
2013-5-28,82,66,54,71,61,51,97,86,63,30.05,29.86,2,0,0,0.00
2013-5-29,86,79,73,70,67,63,73,67,59,30.00,29.96,2,1,0,0.00
2013-5-30,87,85,84,67,66,66,55,53,50,30.02,30.02,0,0,0,0.00
2013-6-1,82,76,69,73,70,65,97,81,68,29.83,29.73,1,0,0,0.00
2013-6-2,76,70,66,69,62,-100,98,82,63,29.84,29.73,3,1,0,0.00
2013-6-3,60,57,53,51,47,45,81,70,60,30.05,30.00,1,0,0,0.00
2013-6-6,62,59,56,61,58,55,97,97,96,29.83,29.80,0,0,0,0.00
2013-6-7,58,22,58,56,-41,-100,93,35,93,29.85,29.84,0,0,0,0.00
2013-6-8,67,62,59,59,57,55,92,83,74,30.03,29.97,1,0,0,0.00
2013-6-9,79,75,67,65,63,61,80,67,59,30.13,29.96,3,2,0,0.00
2013-6-10,73,70,67,71,67,63,97,91,77,29.96,29.73,1,0,0,0.00
2013-6-11,76,69,65,67,65,64,96,87,68,29.89,29.76,2,1,0,0.00
2013-6-12,75,73,70,68,67,65,87,83,79,29.91,29.80,0,0,0,0.00
2013-6-15,79,76,64,60,58,57,81,55,50,30.12,30.01,1,0,0,0.00
2013-6-16,77,76,75,70,69,68,79,78,77,29.87,29.86,2,2,0,0.00
2013-6-17,81,78,76,68,67,65,73,69,63,29.93,29.86,1,0,0,0.00
2013-6-19,70,68,63,57,54,52,74,61,55,30.14,30.11,2,1,0,0.00
2013-6-22,89,87,85,75,74,73,68,65,62,30.12,30.09,1,0,0,0.00
2013-6-23,88,86,83,72,72,71,67,62,60,30.08,30.06,1,1,0,0.00
2013-6-24,89,87,84,72,70,70,65,58,53,30.09,29.98,2,1,0,0.00
2013-6-25,88,80,71,75,72,68,92,78,61,30.00,29.83,3,1,0,0.00
2013-6-26,83,79,71,74,71,69,96,79,69,29.88,29.78,1,0,0,0.00
2013-6-27,77,73,70,72,70,69,98,91,82,29.74,29.67,1,0,0,0.00
2013-6-28,77,73,70,70,67,64,97,82,75,29.57,29.51,2,0,0,0.00
2013-6-29,73,71,67,68,66,65,98,85,80,29.69,29.58,1,0,0,0.00
2013-6-30,73,70,67,67,66,63,91,85,80,29.86,29.79,1,0,0,0.00
2013-7-1,72,70,68,68,67,67,95,90,87,29.94,29.90,3,0,0,0.00
2013-7-4,78,77,75,71,71,70,85,81,79,30.13,30.12,0,0,0,0.00
2013-7-7,80,78,75,71,69,67,83,75,66,30.07,29.98,2,0,0,0.00
2013-7-8,80,76,72,73,71,68,90,84,79,30.08,30.07,1,0,0,0.00
2013-7-9,82,78,73,78,76,73,99,93,87,29.99,29.96,1,0,0,0.00
2013-7-10,86,65,71,81,49,-100,95,79,79,29.88,29.76,3,0,0,0.00
2013-7-11,75,73,72,65,61,57,79,65,56,30.03,30.01,1,0,0,0.00
2013-7-12,79,76,68,67,65,61,79,70,62,30.11,30.07,2,0,0,0.00
2013-7-13,84,75,66,70,65,59,82,71,62,30.21,30.10,3,1,0,0.00
2013-7-14,89,81,71,74,71,66,85,72,57,30.25,30.20,1,0,0,0.00
2013-7-15,82,80,77,73,72,71,82,78,73,30.32,30.25,0,0,0,0.00
2013-7-16,90,88,84,82,79,75,81,74,68,30.33,30.28,1,0,0,0.00
2013-7-17,86,85,82,78,77,77,86,78,74,30.33,30.33,0,0,0,0.00
2013-7-18,94,91,85,79,78,75,80,65,57,30.19,30.05,1,0,0,0.00
2013-7-19,94,88,81,79,77,74,82,70,58,30.00,29.84,2,1,3,0.00
2013-7-20,81,73,69,75,68,-100,98,86,73,29.95,29.81,4,0,0,0.00
2013-7-21,81,75,70,69,67,65,84,76,60,30.02,29.94,1,0,0,0.00
2013-7-22,75,74,72,67,65,63,76,75,73,29.94,29.91,0,0,0,0.00
2013-7-23,82,77,67,71,66,61,83,70,60,29.80,29.66,2,0,2,0.00
2013-7-24,67,65,63,53,50,48,67,59,52,30.03,29.92,2,1,0,0.00
2013-7-25,74,70,62,53,49,46,56,48,42,30.12,30.09,3,1,0,0.00
2013-7-26,79,69,56,58,54,49,78,60,43,30.11,30.01,1,0,0,0.00
2013-7-27,68,66,64,62,60,58,83,80,73,29.95,29.84,1,0,0,0.00
2013-7-28,71,66,59,54,50,46,78,56,46,30.03,29.94,2,1,0,0.00
2013-7-29,69,64,58,57,52,49,76,66,51,30.18,30.03,2,0,0,0.00
2013-7-31,77,76,75,63,62,60,62,60,59,30.10,30.01,1,0,0,0.00
2013-8-2,74,73,72,57,55,54,57,54,50,29.99,29.96,2,1,0,0.00
2013-8-4,68,67,66,54,53,52,63,60,58,30.15,30.14,2,1,0,0.00
2013-8-5,72,70,67,53,51,48,58,51,49,30.14,30.09,1,0,0,0.00
2013-8-7,79,74,70,68,66,61,82,74,67,30.00,29.89,1,0,0,0.00
2013-8-8,79,74,72,70,68,66,84,80,74,29.98,29.93,1,0,0,0.00
2013-8-9,74,71,68,64,60,52,84,70,47,30.00,29.95,1,0,0,0.00
2013-8-10,74,72,71,58,54,52,57,53,51,30.12,30.11,1,0,0,0.00
2013-8-11,79,77,71,58,56,54,55,50,45,30.14,30.07,2,0,0,0.00
2013-8-12,77,73,69,64,61,59,74,66,57,30.05,29.96,0,0,0,0.00
2013-8-13,66,66,64,55,51,49,69,61,55,29.98,29.96,2,1,0,0.00
2013-8-14,67,62,60,52,46,-100,68,59,54,30.15,30.10,2,1,0,0.00
2013-8-15,71,56,65,52,17,-100,55,43,46,30.21,30.14,1,0,0,0.00
2013-8-16,74,66,62,54,47,-100,73,56,47,30.20,30.19,1,0,0,0.00
2013-8-17,79,75,64,58,55,53,70,51,42,30.27,30.21,3,1,0,0.00
2013-8-18,77,72,59,62,59,53,80,64,53,30.24,30.14,2,0,0,0.00
2013-8-19,76,70,65,63,52,-100,83,75,64,30.16,30.13,1,0,0,0.00
2013-8-20,83,77,80,60,49,-100,50,46,42,30.19,30.15,0,0,0,0.00
2013-8-21,80,73,64,63,61,57,79,68,54,30.20,30.18,1,0,0,0.00
2013-8-22,81,77,71,68,66,64,82,69,60,30.09,30.01,2,1,0,0.00
2013-8-23,78,76,71,64,61,57,76,61,49,30.12,30.08,2,0,0,0.00
2013-8-24,78,75,64,57,53,49,72,47,38,30.33,30.29,2,1,0,0.00
2013-8-25,84,80,68,61,59,57,71,48,40,30.35,30.25,1,0,0,0.00
2013-8-26,86,81,70,64,61,58,66,52,46,30.21,30.03,2,0,0,0.00
2013-8-27,79,75,73,71,68,66,84,80,72,30.05,29.95,1,0,0,0.00
2013-8-29,80,80,79,69,67,67,69,66,64,30.05,30.03,1,0,0,0.00
2013-8-30,85,80,70,68,66,64,84,64,52,30.00,29.92,1,0,0,0.00
2013-8-31,80,78,74,69,67,66,79,70,64,29.85,29.83,0,0,0,0.00
2013-9-1,81,76,73,70,68,66,84,77,65,29.83,29.76,1,0,0,0.00
2013-9-3,63,63,63,53,53,51,70,69,66,30.01,29.98,2,1,0,0.00
2013-9-4,73,69,61,57,56,53,75,63,57,30.12,30.10,2,1,0,0.00
2013-9-5,68,67,66,56,51,47,67,57,49,30.23,30.18,1,0,0,0.00
2013-9-6,71,67,56,52,49,42,73,53,37,30.30,30.18,1,0,0,0.00
2013-9-7,80,74,62,62,56,50,65,54,48,30.08,29.98,1,0,0,0.00
2013-9-8,73,72,70,64,60,57,79,68,61,30.06,29.98,2,1,0,0.00
2013-9-9,80,71,56,67,60,50,79,69,64,30.09,29.99,1,0,0,0.00
2013-9-10,95,89,78,72,69,65,72,54,38,30.05,30.02,1,0,0,0.00
2013-9-11,93,89,81,70,67,65,65,50,41,30.12,29.97,1,0,0,0.00
2013-9-12,74,72,70,66,64,62,80,76,73,29.93,29.86,2,1,0,0.00
2013-9-14,63,61,56,46,44,41,59,55,53,30.19,30.15,2,0,0,0.00
2013-9-16,63,61,58,53,49,45,73,66,60,30.34,30.21,2,0,0,0.00
2013-9-19,65,65,65,57,57,57,75,75,75,30.11,30.11,0,0,0,0.00
2013-9-21,67,64,62,56,55,53,75,72,66,29.78,29.73,3,1,0,0.00
2013-9-24,65,62,57,50,48,44,62,59,54,30.15,30.03,3,1,0,0.00
2013-9-26,71,69,67,52,50,48,57,52,48,30.09,30.07,1,0,0,0.00
2013-9-27,72,70,62,54,52,49,71,53,48,30.24,30.19,2,1,0,0.00
2013-9-28,76,72,64,55,54,53,68,53,45,30.24,30.12,1,0,0,0.00
2013-10-2,78,72,65,67,62,59,80,71,60,30.10,30.06,0,0,0,0.00
2013-10-6,82,79,73,69,68,66,83,68,60,29.88,29.69,1,1,0,0.00
2013-10-7,64,58,52,54,47,43,84,68,52,29.98,29.75,3,1,0,0.00
2013-10-12,78,72,69,63,62,60,78,72,58,30.12,30.09,0,0,0,0.00
2013-10-15,67,65,56,61,58,51,84,78,75,30.17,29.95,1,0,0,0.00
2013-10-16,73,68,66,64,62,60,85,80,73,29.88,29.82,2,0,0,0.00
2013-10-19,51,48,47,44,42,41,82,80,76,29.86,29.77,2,0,0,0.00
2013-10-23,49,46,42,40,36,32,82,69,54,29.93,29.80,3,0,0,0.00
2013-10-24,47,44,41,38,35,34,81,71,62,30.07,30.02,3,1,0,0.00
2013-10-28,58,55,47,44,42,37,67,62,57,30.28,30.26,1,0,0,0.00
2013-11-1,58,56,54,46,45,43,68,64,62,29.67,29.63,3,1,0,0.00
2013-11-2,51,50,50,46,44,43,85,78,75,29.89,29.78,2,1,0,0.00
2013-11-3,49,48,47,35,34,33,59,58,57,30.38,30.36,2,1,0,0.00
2013-11-6,63,61,60,57,55,54,82,82,81,29.93,29.92,1,1,0,0.00
2013-11-7,47,46,43,41,34,29,78,62,53,30.14,30.09,4,2,0,0.00
2013-11-12,38,37,36,27,22,20,68,55,50,30.48,30.45,2,2,0,0.00
2013-11-15,56,55,52,29,27,26,36,34,33,30.14,30.08,2,1,0,0.00
2013-11-18,49,48,47,37,35,33,68,61,57,29.90,29.79,5,4,0,0.00
2013-11-20,50,46,40,26,22,19,56,38,29,30.45,30.31,2,1,0,0.00
2013-11-23,35,34,33,23,17,15,61,50,46,30.28,30.23,4,4,0,0.00
2013-11-26,40,38,36,31,30,28,80,73,65,30.13,29.92,1,0,0,0.00
2013-12-4,62,61,61,51,50,50,66,66,65,29.83,29.82,1,1,0,0.00
2013-12-8,33,31,27,20,18,17,65,58,54,30.50,30.23,3,1,0,0.00
2013-12-11,27,25,24,21,19,18,79,75,70,30.32,30.25,2,1,0,0.00
2013-12-21,47,43,39,42,38,34,84,83,82,29.85,29.75,1,0,0,0.00
2013-12-22,63,42,42,52,17,-100,85,62,61,29.82,29.45,4,2,0,0.00
2013-12-23,36,35,34,32,30,27,86,82,76,30.29,30.15,3,2,0,0.00
2013-12-27,41,40,37,33,32,30,77,73,70,30.30,30.26,2,0,0,0.00
2013-12-28,54,49,42,39,37,33,71,62,55,30.18,30.06,2,1,0,0.00
2013-12-30,20,20,19,18,16,15,90,87,81,30.27,30.15,0,0,0,0.00
2013-12-31,22,19,18,20,15,11,91,83,72,30.29,30.06,3,1,0,0.00
2014-1-2,21,18,16,19,16,14,92,91,90,29.96,29.87,7,4,0,0.00